sensor_id;sensor_type;location;lat;lon;timestamp;temperature;humidity
11055;DHT22;5580;50.106;8.702;2023-05-10T00:00:13;16.70;99.90
11055;DHT22;5580;50.106;8.702;2023-05-10T00:02:39;16.60;99.90
11055;DHT22;5580;50.106;8.702;2023-05-10T00:05:05;16.60;99.90
11055;DHT22;5580;50.106;8.702;2023-05-10T00:07:30;16.60;99.90
11055;DHT22;5580;50.106;8.702;2023-05-10T00:09:56;16.60;99.90
11055;DHT22;5580;50.106;8.702;2023-05-10T00:12:22;16.60;99.90
11055;DHT22;5580;50.106;8.702;2023-05-10T00:14:47;16.50;99.90
11055;DHT22;5580;50.106;8.702;2023-05-10T00:17:13;16.50;99.90
11055;DHT22;5580;50.106;8.702;2023-05-10T00:19:39;16.40;99.90
11055;DHT22;5580;50.106;8.702;2023-05-10T00:22:05;16.30;99.90
11055;DHT22;5580;50.106;8.702;2023-05-10T00:24:31;16.20;99.90
11055;DHT22;5580;50.106;8.702;2023-05-10T00:26:56;16.20;99.90
11055;DHT22;5580;50.106;8.702;2023-05-10T00:29:22;16.20;99.90
11055;DHT22;5580;50.106;8.702;2023-05-10T00:31:47;16.10;99.90
11055;DHT22;5580;50.106;8.702;2023-05-10T00:34:13;16.10;99.90
11055;DHT22;5580;50.106;8.702;2023-05-10T00:36:38;16.10;99.90
11055;DHT22;5580;50.106;8.702;2023-05-10T00:39:04;16.20;99.90
11055;DHT22;5580;50.106;8.702;2023-05-10T00:41:30;16.10;99.90
11055;DHT22;5580;50.106;8.702;2023-05-10T00:43:58;16.00;99.90
11055;DHT22;5580;50.106;8.702;2023-05-10T00:46:24;16.00;99.90
11055;DHT22;5580;50.106;8.702;2023-05-10T00:48:51;16.00;99.90
11055;DHT22;5580;50.106;8.702;2023-05-10T00:51:17;16.00;99.90
11055;DHT22;5580;50.106;8.702;2023-05-10T00:53:45;16.00;99.90
11055;DHT22;5580;50.106;8.702;2023-05-10T00:56:11;15.90;99.90
11055;DHT22;5580;50.106;8.702;2023-05-10T00:58:38;15.80;99.90
11055;DHT22;5580;50.106;8.702;2023-05-10T01:01:04;15.80;99.90
11055;DHT22;5580;50.106;8.702;2023-05-10T01:03:31;15.70;99.90
11055;DHT22;5580;50.106;8.702;2023-05-10T01:05:57;15.70;99.90
11055;DHT22;5580;50.106;8.702;2023-05-10T01:08:23;15.70;99.90
11055;DHT22;5580;50.106;8.702;2023-05-10T01:10:49;15.70;99.90
11055;DHT22;5580;50.106;8.702;2023-05-10T01:13:23;15.70;99.90
11055;DHT22;5580;50.106;8.702;2023-05-10T01:15:53;15.70;99.90
11055;DHT22;5580;50.106;8.702;2023-05-10T01:18:20;15.80;99.90
11055;DHT22;5580;50.106;8.702;2023-05-10T01:20:50;15.70;99.90
11055;DHT22;5580;50.106;8.702;2023-05-10T01:23:30;15.70;99.90
11055;DHT22;5580;50.106;8.702;2023-05-10T01:34:35;15.70;99.90
11055;DHT22;5580;50.106;8.702;2023-05-10T01:37:11;15.80;99.90
11055;DHT22;5580;50.106;8.702;2023-05-10T01:39:48;15.70;99.90
11055;DHT22;5580;50.106;8.702;2023-05-10T01:42:21;15.70;99.90
11055;DHT22;5580;50.106;8.702;2023-05-10T01:45:17;15.70;99.90
11055;DHT22;5580;50.106;8.702;2023-05-10T01:47:46;15.60;99.90
11055;DHT22;5580;50.106;8.702;2023-05-10T01:50:27;15.50;99.90
11055;DHT22;5580;50.106;8.702;2023-05-10T01:52:56;15.50;99.90
11055;DHT22;5580;50.106;8.702;2023-05-10T01:55:27;15.50;99.90
11055;DHT22;5580;50.106;8.702;2023-05-10T01:58:19;15.50;99.90
11055;DHT22;5580;50.106;8.702;2023-05-10T02:00:47;15.50;99.90
11055;DHT22;5580;50.106;8.702;2023-05-10T02:03:15;15.60;99.90
11055;DHT22;5580;50.106;8.702;2023-05-10T02:05:41;15.50;99.90
11055;DHT22;5580;50.106;8.702;2023-05-10T02:08:09;15.50;99.90
11055;DHT22;5580;50.106;8.702;2023-05-10T02:10:36;15.60;99.90
11055;DHT22;5580;50.106;8.702;2023-05-10T02:13:02;15.50;99.90
11055;DHT22;5580;50.106;8.702;2023-05-10T02:15:29;15.50;99.90
11055;DHT22;5580;50.106;8.702;2023-05-10T02:17:57;15.40;99.90
11055;DHT22;5580;50.106;8.702;2023-05-10T02:20:24;15.40;99.90
11055;DHT22;5580;50.106;8.702;2023-05-10T02:22:54;15.40;99.90
11055;DHT22;5580;50.106;8.702;2023-05-10T02:25:22;15.40;99.90
11055;DHT22;5580;50.106;8.702;2023-05-10T02:27:49;15.50;99.90
11055;DHT22;5580;50.106;8.702;2023-05-10T02:30:15;15.50;99.90
11055;DHT22;5580;50.106;8.702;2023-05-10T02:32:42;15.50;99.90
11055;DHT22;5580;50.106;8.702;2023-05-10T02:35:08;15.50;99.90
11055;DHT22;5580;50.106;8.702;2023-05-10T02:37:36;15.40;99.90
11055;DHT22;5580;50.106;8.702;2023-05-10T02:40:02;15.40;99.90
11055;DHT22;5580;50.106;8.702;2023-05-10T02:42:29;15.40;99.90
11055;DHT22;5580;50.106;8.702;2023-05-10T02:45:01;15.30;99.90
11055;DHT22;5580;50.106;8.702;2023-05-10T02:47:28;15.30;99.90
11055;DHT22;5580;50.106;8.702;2023-05-10T02:49:54;15.30;99.90
11055;DHT22;5580;50.106;8.702;2023-05-10T02:52:25;15.20;99.90
11055;DHT22;5580;50.106;8.702;2023-05-10T02:54:55;15.20;99.90
11055;DHT22;5580;50.106;8.702;2023-05-10T02:57:29;15.10;99.90
11055;DHT22;5580;50.106;8.702;2023-05-10T02:59:57;15.00;99.90
11055;DHT22;5580;50.106;8.702;2023-05-10T03:02:23;15.00;99.90
11055;DHT22;5580;50.106;8.702;2023-05-10T03:04:48;15.00;99.90
11055;DHT22;5580;50.106;8.702;2023-05-10T03:07:14;15.00;99.90
11055;DHT22;5580;50.106;8.702;2023-05-10T03:09:40;15.00;99.90
11055;DHT22;5580;50.106;8.702;2023-05-10T03:20:16;15.00;99.90
11055;DHT22;5580;50.106;8.702;2023-05-10T03:22:49;15.00;99.90
11055;DHT22;5580;50.106;8.702;2023-05-10T03:25:17;15.00;99.90
11055;DHT22;5580;50.106;8.702;2023-05-10T03:27:44;15.00;99.90
11055;DHT22;5580;50.106;8.702;2023-05-10T03:30:12;15.00;99.90
11055;DHT22;5580;50.106;8.702;2023-05-10T03:32:38;15.00;99.90
11055;DHT22;5580;50.106;8.702;2023-05-10T03:35:08;15.10;99.90
11055;DHT22;5580;50.106;8.702;2023-05-10T03:37:34;15.10;99.90
11055;DHT22;5580;50.106;8.702;2023-05-10T03:40:00;15.20;99.90
11055;DHT22;5580;50.106;8.702;2023-05-10T03:42:25;15.20;99.90
11055;DHT22;5580;50.106;8.702;2023-05-10T03:44:51;15.20;99.90
11055;DHT22;5580;50.106;8.702;2023-05-10T03:47:16;15.20;99.90
11055;DHT22;5580;50.106;8.702;2023-05-10T03:49:42;15.20;99.90
11055;DHT22;5580;50.106;8.702;2023-05-10T03:52:07;15.20;99.90
11055;DHT22;5580;50.106;8.702;2023-05-10T03:54:33;15.20;99.90
11055;DHT22;5580;50.106;8.702;2023-05-10T03:56:59;15.20;99.90
11055;DHT22;5580;50.106;8.702;2023-05-10T03:59:26;15.30;99.90
11055;DHT22;5580;50.106;8.702;2023-05-10T04:01:51;15.30;99.90
11055;DHT22;5580;50.106;8.702;2023-05-10T04:04:17;15.20;99.90
11055;DHT22;5580;50.106;8.702;2023-05-10T04:06:44;15.20;99.90
11055;DHT22;5580;50.106;8.702;2023-05-10T04:09:10;15.30;99.90
11055;DHT22;5580;50.106;8.702;2023-05-10T04:11:36;15.30;99.90
11055;DHT22;5580;50.106;8.702;2023-05-10T04:14:01;15.30;99.90
11055;DHT22;5580;50.106;8.702;2023-05-10T04:16:27;15.30;99.90
11055;DHT22;5580;50.106;8.702;2023-05-10T04:18:53;15.30;99.90
11055;DHT22;5580;50.106;8.702;2023-05-10T04:21:18;15.30;99.90
11055;DHT22;5580;50.106;8.702;2023-05-10T04:23:44;15.30;99.90
11055;DHT22;5580;50.106;8.702;2023-05-10T04:26:10;15.20;99.90
11055;DHT22;5580;50.106;8.702;2023-05-10T04:28:35;15.20;99.90
11055;DHT22;5580;50.106;8.702;2023-05-10T04:31:09;15.20;99.90
11055;DHT22;5580;50.106;8.702;2023-05-10T04:33:36;15.20;99.90
11055;DHT22;5580;50.106;8.702;2023-05-10T04:36:02;15.20;99.90
11055;DHT22;5580;50.106;8.702;2023-05-10T04:38:28;15.10;99.90
11055;DHT22;5580;50.106;8.702;2023-05-10T04:40:54;15.10;99.90
11055;DHT22;5580;50.106;8.702;2023-05-10T04:43:19;15.10;99.90
11055;DHT22;5580;50.106;8.702;2023-05-10T04:45:45;15.10;99.90
11055;DHT22;5580;50.106;8.702;2023-05-10T04:48:11;15.10;99.90
11055;DHT22;5580;50.106;8.702;2023-05-10T04:50:37;15.10;99.90
11055;DHT22;5580;50.106;8.702;2023-05-10T04:53:02;15.10;99.90
11055;DHT22;5580;50.106;8.702;2023-05-10T04:55:28;15.00;99.90
11055;DHT22;5580;50.106;8.702;2023-05-10T04:57:53;15.00;99.90
11055;DHT22;5580;50.106;8.702;2023-05-10T05:00:22;15.00;99.90
11055;DHT22;5580;50.106;8.702;2023-05-10T05:02:47;15.10;99.90
11055;DHT22;5580;50.106;8.702;2023-05-10T05:05:13;15.10;99.90
11055;DHT22;5580;50.106;8.702;2023-05-10T05:07:39;15.10;99.90
11055;DHT22;5580;50.106;8.702;2023-05-10T05:10:06;15.20;99.90
11055;DHT22;5580;50.106;8.702;2023-05-10T05:12:32;15.10;99.90
11055;DHT22;5580;50.106;8.702;2023-05-10T05:14:58;15.00;99.90
11055;DHT22;5580;50.106;8.702;2023-05-10T05:17:23;15.10;99.90
11055;DHT22;5580;50.106;8.702;2023-05-10T05:19:49;15.10;99.90
11055;DHT22;5580;50.106;8.702;2023-05-10T05:22:14;15.10;99.90
11055;DHT22;5580;50.106;8.702;2023-05-10T05:24:40;15.00;99.90
11055;DHT22;5580;50.106;8.702;2023-05-10T05:27:05;15.00;99.90
11055;DHT22;5580;50.106;8.702;2023-05-10T05:29:31;15.10;99.90
11055;DHT22;5580;50.106;8.702;2023-05-10T05:31:57;15.10;99.90
11055;DHT22;5580;50.106;8.702;2023-05-10T05:34:22;15.10;99.90
11055;DHT22;5580;50.106;8.702;2023-05-10T05:36:49;15.10;99.90
11055;DHT22;5580;50.106;8.702;2023-05-10T05:39:15;15.10;99.90
11055;DHT22;5580;50.106;8.702;2023-05-10T05:41:40;15.10;99.90
11055;DHT22;5580;50.106;8.702;2023-05-10T05:44:06;15.10;99.90
11055;DHT22;5580;50.106;8.702;2023-05-10T05:46:32;15.10;99.90
11055;DHT22;5580;50.106;8.702;2023-05-10T05:48:57;15.20;99.90
11055;DHT22;5580;50.106;8.702;2023-05-10T05:51:23;15.20;99.90
11055;DHT22;5580;50.106;8.702;2023-05-10T05:53:48;15.20;99.90
11055;DHT22;5580;50.106;8.702;2023-05-10T05:56:14;15.20;99.90
11055;DHT22;5580;50.106;8.702;2023-05-10T05:58:39;15.20;99.90
11055;DHT22;5580;50.106;8.702;2023-05-10T06:01:05;15.20;99.90
11055;DHT22;5580;50.106;8.702;2023-05-10T06:03:30;15.20;99.90
11055;DHT22;5580;50.106;8.702;2023-05-10T06:05:56;15.20;99.90
11055;DHT22;5580;50.106;8.702;2023-05-10T06:08:22;15.30;99.90
11055;DHT22;5580;50.106;8.702;2023-05-10T06:10:47;15.30;99.90
11055;DHT22;5580;50.106;8.702;2023-05-10T06:13:13;15.20;99.90
11055;DHT22;5580;50.106;8.702;2023-05-10T06:15:39;15.20;99.90
11055;DHT22;5580;50.106;8.702;2023-05-10T06:18:05;15.20;99.90
11055;DHT22;5580;50.106;8.702;2023-05-10T06:20:31;15.20;99.90
11055;DHT22;5580;50.106;8.702;2023-05-10T06:22:57;15.30;99.90
11055;DHT22;5580;50.106;8.702;2023-05-10T06:25:23;15.30;99.90
11055;DHT22;5580;50.106;8.702;2023-05-10T06:27:48;15.30;99.90
11055;DHT22;5580;50.106;8.702;2023-05-10T06:30:14;15.30;99.90
11055;DHT22;5580;50.106;8.702;2023-05-10T06:32:41;15.30;99.90
11055;DHT22;5580;50.106;8.702;2023-05-10T06:35:07;15.20;99.90
11055;DHT22;5580;50.106;8.702;2023-05-10T06:37:33;15.20;99.90
11055;DHT22;5580;50.106;8.702;2023-05-10T06:39:59;15.20;99.90
11055;DHT22;5580;50.106;8.702;2023-05-10T06:42:25;15.30;99.90
11055;DHT22;5580;50.106;8.702;2023-05-10T06:44:52;15.30;99.90
11055;DHT22;5580;50.106;8.702;2023-05-10T06:47:18;15.30;99.90
11055;DHT22;5580;50.106;8.702;2023-05-10T06:49:43;15.30;99.90
11055;DHT22;5580;50.106;8.702;2023-05-10T06:52:09;15.40;99.90
11055;DHT22;5580;50.106;8.702;2023-05-10T06:54:35;15.40;99.90
11055;DHT22;5580;50.106;8.702;2023-05-10T06:57:00;15.40;99.90
11055;DHT22;5580;50.106;8.702;2023-05-10T06:59:28;15.50;99.90
11055;DHT22;5580;50.106;8.702;2023-05-10T07:01:53;15.50;99.90
11055;DHT22;5580;50.106;8.702;2023-05-10T07:04:19;15.50;99.90
11055;DHT22;5580;50.106;8.702;2023-05-10T07:06:45;15.50;99.90
11055;DHT22;5580;50.106;8.702;2023-05-10T07:09:11;15.40;99.90
11055;DHT22;5580;50.106;8.702;2023-05-10T07:11:38;15.40;99.90
11055;DHT22;5580;50.106;8.702;2023-05-10T07:14:04;15.40;99.90
11055;DHT22;5580;50.106;8.702;2023-05-10T07:16:30;15.50;99.90
11055;DHT22;5580;50.106;8.702;2023-05-10T07:18:56;15.50;99.90
11055;DHT22;5580;50.106;8.702;2023-05-10T07:21:21;15.50;99.90
11055;DHT22;5580;50.106;8.702;2023-05-10T07:23:49;15.50;99.90
11055;DHT22;5580;50.106;8.702;2023-05-10T07:26:15;15.50;99.90
11055;DHT22;5580;50.106;8.702;2023-05-10T07:28:41;15.50;99.90
11055;DHT22;5580;50.106;8.702;2023-05-10T07:31:07;15.50;99.90
11055;DHT22;5580;50.106;8.702;2023-05-10T07:33:32;15.50;99.90
11055;DHT22;5580;50.106;8.702;2023-05-10T07:35:58;15.50;99.90
11055;DHT22;5580;50.106;8.702;2023-05-10T07:38:23;15.50;99.90
11055;DHT22;5580;50.106;8.702;2023-05-10T07:40:49;15.60;99.90
11055;DHT22;5580;50.106;8.702;2023-05-10T07:43:15;15.60;99.90
11055;DHT22;5580;50.106;8.702;2023-05-10T07:45:40;15.60;99.90
11055;DHT22;5580;50.106;8.702;2023-05-10T07:48:06;15.70;99.90
11055;DHT22;5580;50.106;8.702;2023-05-10T07:50:31;15.70;99.90
11055;DHT22;5580;50.106;8.702;2023-05-10T07:52:57;15.70;99.90
11055;DHT22;5580;50.106;8.702;2023-05-10T07:55:23;15.70;99.90
11055;DHT22;5580;50.106;8.702;2023-05-10T07:57:48;15.80;99.90
11055;DHT22;5580;50.106;8.702;2023-05-10T08:00:17;15.90;99.90
11055;DHT22;5580;50.106;8.702;2023-05-10T08:02:43;15.80;99.90
11055;DHT22;5580;50.106;8.702;2023-05-10T08:05:09;15.80;99.90
11055;DHT22;5580;50.106;8.702;2023-05-10T08:07:35;15.80;99.90
11055;DHT22;5580;50.106;8.702;2023-05-10T08:10:01;15.90;99.90
11055;DHT22;5580;50.106;8.702;2023-05-10T08:12:27;15.90;99.90
11055;DHT22;5580;50.106;8.702;2023-05-10T08:14:52;15.90;99.90
11055;DHT22;5580;50.106;8.702;2023-05-10T08:17:18;16.00;99.90
11055;DHT22;5580;50.106;8.702;2023-05-10T08:19:43;16.10;99.90
11055;DHT22;5580;50.106;8.702;2023-05-10T08:22:09;16.20;99.90
11055;DHT22;5580;50.106;8.702;2023-05-10T08:24:35;16.20;99.90
11055;DHT22;5580;50.106;8.702;2023-05-10T08:27:06;16.30;99.90
11055;DHT22;5580;50.106;8.702;2023-05-10T08:29:32;16.30;99.90
11055;DHT22;5580;50.106;8.702;2023-05-10T08:31:58;16.40;99.90
11055;DHT22;5580;50.106;8.702;2023-05-10T08:34:23;16.40;99.90
11055;DHT22;5580;50.106;8.702;2023-05-10T08:36:49;16.50;99.90
11055;DHT22;5580;50.106;8.702;2023-05-10T08:39:14;16.40;99.90
11055;DHT22;5580;50.106;8.702;2023-05-10T08:41:44;16.50;99.90
11055;DHT22;5580;50.106;8.702;2023-05-10T08:44:09;16.50;99.90
11055;DHT22;5580;50.106;8.702;2023-05-10T08:46:37;16.60;99.90
11055;DHT22;5580;50.106;8.702;2023-05-10T08:49:06;16.60;99.90
11055;DHT22;5580;50.106;8.702;2023-05-10T08:51:36;16.60;99.90
11055;DHT22;5580;50.106;8.702;2023-05-10T08:54:03;16.60;99.90
11055;DHT22;5580;50.106;8.702;2023-05-10T08:56:29;16.70;99.90
11055;DHT22;5580;50.106;8.702;2023-05-10T08:58:56;16.70;99.90
11055;DHT22;5580;50.106;8.702;2023-05-10T09:01:22;16.70;99.90
11055;DHT22;5580;50.106;8.702;2023-05-10T09:03:49;16.80;99.90
11055;DHT22;5580;50.106;8.702;2023-05-10T09:06:15;16.80;99.90
11055;DHT22;5580;50.106;8.702;2023-05-10T09:08:41;16.80;99.90
11055;DHT22;5580;50.106;8.702;2023-05-10T09:11:08;16.80;99.90
11055;DHT22;5580;50.106;8.702;2023-05-10T09:13:35;16.80;99.90
11055;DHT22;5580;50.106;8.702;2023-05-10T09:16:02;16.80;99.90
11055;DHT22;5580;50.106;8.702;2023-05-10T09:18:28;16.80;99.90
11055;DHT22;5580;50.106;8.702;2023-05-10T09:20:54;16.80;99.90
11055;DHT22;5580;50.106;8.702;2023-05-10T09:23:20;16.80;99.90
11055;DHT22;5580;50.106;8.702;2023-05-10T09:25:46;16.80;99.90
11055;DHT22;5580;50.106;8.702;2023-05-10T09:28:11;16.80;99.90
11055;DHT22;5580;50.106;8.702;2023-05-10T09:30:37;16.70;99.90
11055;DHT22;5580;50.106;8.702;2023-05-10T09:33:03;16.70;99.90
11055;DHT22;5580;50.106;8.702;2023-05-10T09:35:30;16.70;99.90
11055;DHT22;5580;50.106;8.702;2023-05-10T09:38:02;16.70;99.90
11055;DHT22;5580;50.106;8.702;2023-05-10T09:40:29;16.80;99.90
11055;DHT22;5580;50.106;8.702;2023-05-10T09:43:06;16.80;99.90
11055;DHT22;5580;50.106;8.702;2023-05-10T09:45:34;16.80;99.90
11055;DHT22;5580;50.106;8.702;2023-05-10T09:48:01;16.90;99.90
11055;DHT22;5580;50.106;8.702;2023-05-10T09:50:28;16.80;99.90
11055;DHT22;5580;50.106;8.702;2023-05-10T09:53:00;16.90;99.90
11055;DHT22;5580;50.106;8.702;2023-05-10T09:55:40;16.80;99.90
11055;DHT22;5580;50.106;8.702;2023-05-10T09:58:06;16.90;99.90
11055;DHT22;5580;50.106;8.702;2023-05-10T10:00:46;16.90;99.90
11055;DHT22;5580;50.106;8.702;2023-05-10T10:03:17;16.90;99.90
11055;DHT22;5580;50.106;8.702;2023-05-10T10:05:44;17.00;99.90
11055;DHT22;5580;50.106;8.702;2023-05-10T10:08:10;17.10;99.90
11055;DHT22;5580;50.106;8.702;2023-05-10T10:10:36;17.10;99.90
11055;DHT22;5580;50.106;8.702;2023-05-10T10:13:02;17.20;99.90
11055;DHT22;5580;50.106;8.702;2023-05-10T10:15:28;17.10;99.90
11055;DHT22;5580;50.106;8.702;2023-05-10T10:17:53;17.00;99.90
11055;DHT22;5580;50.106;8.702;2023-05-10T10:20:20;16.90;99.90
11055;DHT22;5580;50.106;8.702;2023-05-10T10:22:47;16.70;99.90
11055;DHT22;5580;50.106;8.702;2023-05-10T10:25:15;16.60;99.90
11055;DHT22;5580;50.106;8.702;2023-05-10T10:35:45;16.50;99.90
11055;DHT22;5580;50.106;8.702;2023-05-10T10:38:12;16.50;99.90
11055;DHT22;5580;50.106;8.702;2023-05-10T10:40:38;16.60;99.90
11055;DHT22;5580;50.106;8.702;2023-05-10T10:46:11;16.70;99.90
11055;DHT22;5580;50.106;8.702;2023-05-10T10:48:41;16.60;99.90
11055;DHT22;5580;50.106;8.702;2023-05-10T10:51:07;16.60;99.90
11055;DHT22;5580;50.106;8.702;2023-05-10T10:53:33;16.50;99.90
11055;DHT22;5580;50.106;8.702;2023-05-10T10:56:10;16.40;99.90
11055;DHT22;5580;50.106;8.702;2023-05-10T10:58:37;16.40;99.90
11055;DHT22;5580;50.106;8.702;2023-05-10T11:01:24;16.30;99.90
11055;DHT22;5580;50.106;8.702;2023-05-10T11:06:30;16.40;99.90
11055;DHT22;5580;50.106;8.702;2023-05-10T11:08:57;16.40;99.90
11055;DHT22;5580;50.106;8.702;2023-05-10T11:11:22;16.50;99.90
11055;DHT22;5580;50.106;8.702;2023-05-10T11:13:48;16.50;99.90
11055;DHT22;5580;50.106;8.702;2023-05-10T11:16:22;16.60;99.90
11055;DHT22;5580;50.106;8.702;2023-05-10T11:19:07;16.70;99.90
11055;DHT22;5580;50.106;8.702;2023-05-10T11:21:34;16.70;99.90
11055;DHT22;5580;50.106;8.702;2023-05-10T11:24:13;16.70;99.90
11055;DHT22;5580;50.106;8.702;2023-05-10T11:26:40;16.80;99.90
11055;DHT22;5580;50.106;8.702;2023-05-10T11:29:06;16.90;99.90
11055;DHT22;5580;50.106;8.702;2023-05-10T11:31:32;16.90;99.90
11055;DHT22;5580;50.106;8.702;2023-05-10T11:33:59;17.00;99.90
11055;DHT22;5580;50.106;8.702;2023-05-10T11:36:29;17.00;99.90
11055;DHT22;5580;50.106;8.702;2023-05-10T11:38:55;17.10;99.90
11055;DHT22;5580;50.106;8.702;2023-05-10T11:41:22;17.10;99.90
11055;DHT22;5580;50.106;8.702;2023-05-10T11:43:52;17.20;99.90
11055;DHT22;5580;50.106;8.702;2023-05-10T11:46:20;17.30;99.90
11055;DHT22;5580;50.106;8.702;2023-05-10T11:48:49;17.20;99.90
11055;DHT22;5580;50.106;8.702;2023-05-10T11:51:15;17.20;99.90
11055;DHT22;5580;50.106;8.702;2023-05-10T11:53:45;17.10;99.90
11055;DHT22;5580;50.106;8.702;2023-05-10T11:56:11;17.20;99.90
11055;DHT22;5580;50.106;8.702;2023-05-10T11:58:37;17.10;99.90
11055;DHT22;5580;50.106;8.702;2023-05-10T12:01:06;17.10;99.90
11055;DHT22;5580;50.106;8.702;2023-05-10T12:03:32;17.10;99.90
11055;DHT22;5580;50.106;8.702;2023-05-10T12:05:59;17.10;99.90
11055;DHT22;5580;50.106;8.702;2023-05-10T12:08:27;17.10;99.90
11055;DHT22;5580;50.106;8.702;2023-05-10T12:11:13;17.00;99.90
11055;DHT22;5580;50.106;8.702;2023-05-10T12:13:42;17.00;99.90
11055;DHT22;5580;50.106;8.702;2023-05-10T12:16:23;16.90;99.90
11055;DHT22;5580;50.106;8.702;2023-05-10T12:18:53;16.90;99.90
11055;DHT22;5580;50.106;8.702;2023-05-10T12:21:22;16.90;99.90
11055;DHT22;5580;50.106;8.702;2023-05-10T12:23:50;17.00;99.90
11055;DHT22;5580;50.106;8.702;2023-05-10T12:26:16;17.00;99.90
11055;DHT22;5580;50.106;8.702;2023-05-10T12:28:41;17.10;99.90
11055;DHT22;5580;50.106;8.702;2023-05-10T12:31:07;17.10;99.90
11055;DHT22;5580;50.106;8.702;2023-05-10T12:33:43;17.10;99.90
11055;DHT22;5580;50.106;8.702;2023-05-10T12:36:11;17.20;99.90
11055;DHT22;5580;50.106;8.702;2023-05-10T12:38:44;17.30;99.90
11055;DHT22;5580;50.106;8.702;2023-05-10T12:41:15;17.40;99.90
11055;DHT22;5580;50.106;8.702;2023-05-10T12:43:41;17.40;99.90
11055;DHT22;5580;50.106;8.702;2023-05-10T12:46:08;17.40;99.90
11055;DHT22;5580;50.106;8.702;2023-05-10T12:48:35;17.50;99.90
11055;DHT22;5580;50.106;8.702;2023-05-10T12:51:01;17.60;99.90
11055;DHT22;5580;50.106;8.702;2023-05-10T12:53:27;17.60;99.90
11055;DHT22;5580;50.106;8.702;2023-05-10T12:55:53;17.60;99.90
11055;DHT22;5580;50.106;8.702;2023-05-10T12:58:19;17.70;99.90
11055;DHT22;5580;50.106;8.702;2023-05-10T13:00:45;17.80;99.90
11055;DHT22;5580;50.106;8.702;2023-05-10T13:03:11;17.90;99.90
11055;DHT22;5580;50.106;8.702;2023-05-10T13:05:36;17.90;99.90
11055;DHT22;5580;50.106;8.702;2023-05-10T13:08:02;18.00;99.90
11055;DHT22;5580;50.106;8.702;2023-05-10T13:10:29;18.10;99.90
11055;DHT22;5580;50.106;8.702;2023-05-10T13:12:56;18.10;99.90
11055;DHT22;5580;50.106;8.702;2023-05-10T13:15:21;18.10;99.90
11055;DHT22;5580;50.106;8.702;2023-05-10T13:17:47;18.10;99.90
11055;DHT22;5580;50.106;8.702;2023-05-10T13:20:13;18.10;99.90
11055;DHT22;5580;50.106;8.702;2023-05-10T13:22:38;18.10;99.90
11055;DHT22;5580;50.106;8.702;2023-05-10T13:25:04;18.10;99.90
11055;DHT22;5580;50.106;8.702;2023-05-10T13:27:30;18.10;99.90
11055;DHT22;5580;50.106;8.702;2023-05-10T13:29:55;18.10;99.90
11055;DHT22;5580;50.106;8.702;2023-05-10T13:32:21;18.20;99.90
11055;DHT22;5580;50.106;8.702;2023-05-10T13:34:47;18.10;99.90
11055;DHT22;5580;50.106;8.702;2023-05-10T13:37:13;18.10;99.90
11055;DHT22;5580;50.106;8.702;2023-05-10T13:39:39;18.10;99.90
11055;DHT22;5580;50.106;8.702;2023-05-10T13:42:04;18.10;99.90
11055;DHT22;5580;50.106;8.702;2023-05-10T13:44:30;18.10;99.90
11055;DHT22;5580;50.106;8.702;2023-05-10T13:46:56;18.20;99.90
11055;DHT22;5580;50.106;8.702;2023-05-10T13:49:22;18.10;99.90
11055;DHT22;5580;50.106;8.702;2023-05-10T13:51:47;18.20;99.90
11055;DHT22;5580;50.106;8.702;2023-05-10T13:54:13;18.20;99.90
11055;DHT22;5580;50.106;8.702;2023-05-10T13:56:39;18.30;99.90
11055;DHT22;5580;50.106;8.702;2023-05-10T13:59:06;18.30;99.90
11055;DHT22;5580;50.106;8.702;2023-05-10T14:01:33;18.40;99.90
11055;DHT22;5580;50.106;8.702;2023-05-10T14:03:59;18.40;99.90
11055;DHT22;5580;50.106;8.702;2023-05-10T14:06:25;18.40;99.90
11055;DHT22;5580;50.106;8.702;2023-05-10T14:08:50;18.50;99.90
11055;DHT22;5580;50.106;8.702;2023-05-10T14:11:16;18.50;99.90
11055;DHT22;5580;50.106;8.702;2023-05-10T14:13:41;18.50;99.90
11055;DHT22;5580;50.106;8.702;2023-05-10T14:16:07;18.50;99.90
11055;DHT22;5580;50.106;8.702;2023-05-10T14:18:33;18.50;99.90
11055;DHT22;5580;50.106;8.702;2023-05-10T14:20:58;18.50;99.90
11055;DHT22;5580;50.106;8.702;2023-05-10T14:23:24;18.50;99.90
11055;DHT22;5580;50.106;8.702;2023-05-10T14:25:52;18.50;99.90
11055;DHT22;5580;50.106;8.702;2023-05-10T14:28:18;18.50;99.90
11055;DHT22;5580;50.106;8.702;2023-05-10T14:30:45;18.50;99.90
11055;DHT22;5580;50.106;8.702;2023-05-10T14:33:11;18.50;99.90
11055;DHT22;5580;50.106;8.702;2023-05-10T14:35:37;18.50;99.90
11055;DHT22;5580;50.106;8.702;2023-05-10T14:38:03;18.50;99.90
11055;DHT22;5580;50.106;8.702;2023-05-10T14:40:31;18.60;99.90
11055;DHT22;5580;50.106;8.702;2023-05-10T14:42:57;18.50;99.90
11055;DHT22;5580;50.106;8.702;2023-05-10T14:45:23;18.60;99.90
11055;DHT22;5580;50.106;8.702;2023-05-10T14:47:49;18.70;99.90
11055;DHT22;5580;50.106;8.702;2023-05-10T14:50:15;18.70;99.90
11055;DHT22;5580;50.106;8.702;2023-05-10T14:52:42;18.70;99.90
11055;DHT22;5580;50.106;8.702;2023-05-10T14:55:08;18.70;99.90
11055;DHT22;5580;50.106;8.702;2023-05-10T14:57:34;18.70;99.90
11055;DHT22;5580;50.106;8.702;2023-05-10T14:59:59;18.70;99.90
11055;DHT22;5580;50.106;8.702;2023-05-10T15:02:25;18.70;99.90
11055;DHT22;5580;50.106;8.702;2023-05-10T15:04:51;18.80;99.90
11055;DHT22;5580;50.106;8.702;2023-05-10T15:07:16;18.80;99.90
11055;DHT22;5580;50.106;8.702;2023-05-10T15:09:46;18.80;99.90
11055;DHT22;5580;50.106;8.702;2023-05-10T15:12:12;18.80;99.90
11055;DHT22;5580;50.106;8.702;2023-05-10T15:14:37;18.90;99.90
11055;DHT22;5580;50.106;8.702;2023-05-10T15:17:05;18.90;99.90
11055;DHT22;5580;50.106;8.702;2023-05-10T15:19:31;18.90;99.90
11055;DHT22;5580;50.106;8.702;2023-05-10T15:21:58;18.90;99.90
11055;DHT22;5580;50.106;8.702;2023-05-10T15:24:24;18.80;99.90
11055;DHT22;5580;50.106;8.702;2023-05-10T15:26:50;18.80;99.90
11055;DHT22;5580;50.106;8.702;2023-05-10T15:29:15;18.80;99.90
11055;DHT22;5580;50.106;8.702;2023-05-10T15:31:46;18.90;99.90
11055;DHT22;5580;50.106;8.702;2023-05-10T15:34:11;18.80;99.90
11055;DHT22;5580;50.106;8.702;2023-05-10T15:36:38;18.80;99.90
11055;DHT22;5580;50.106;8.702;2023-05-10T15:39:03;18.80;99.90
11055;DHT22;5580;50.106;8.702;2023-05-10T15:41:29;18.80;99.90
11055;DHT22;5580;50.106;8.702;2023-05-10T15:43:55;18.80;99.90
11055;DHT22;5580;50.106;8.702;2023-05-10T15:46:21;18.80;99.90
11055;DHT22;5580;50.106;8.702;2023-05-10T15:48:46;18.70;99.90
11055;DHT22;5580;50.106;8.702;2023-05-10T15:51:12;18.80;99.90
11055;DHT22;5580;50.106;8.702;2023-05-10T15:53:38;18.80;99.90
11055;DHT22;5580;50.106;8.702;2023-05-10T15:56:04;18.80;99.90
11055;DHT22;5580;50.106;8.702;2023-05-10T15:58:30;18.80;99.90
11055;DHT22;5580;50.106;8.702;2023-05-10T16:00:56;18.90;99.90
11055;DHT22;5580;50.106;8.702;2023-05-10T16:03:22;18.90;99.90
11055;DHT22;5580;50.106;8.702;2023-05-10T16:05:47;18.80;99.90
11055;DHT22;5580;50.106;8.702;2023-05-10T16:08:13;18.80;99.90
11055;DHT22;5580;50.106;8.702;2023-05-10T16:10:39;18.80;99.90
11055;DHT22;5580;50.106;8.702;2023-05-10T16:13:04;18.70;99.90